createdAt,value
2018-01-26T00:08:57.256Z,0.0
2018-01-26T00:19:47.575Z,0.0
2018-01-26T00:31:06.438Z,0.0
2018-01-26T00:42:04.592Z,0.0
2018-01-26T00:53:23.677Z,0.0
2018-01-26T01:04:13.355Z,0.0
2018-01-26T01:15:05.036Z,0.0
2018-01-26T01:36:12.790Z,0.0
2018-01-26T01:47:39.706Z,0.0
2018-01-26T01:58:25.660Z,0.0
2018-01-26T02:09:10.884Z,0.0
2018-01-26T02:20:00.662Z,0.0
2018-01-26T02:30:46.139Z,0.0
2018-01-26T02:41:35.755Z,0.0
2018-01-26T02:51:57.812Z,0.0
2018-01-26T03:03:26.402Z,0.0
2018-01-26T03:14:36.560Z,0.0
2018-01-26T03:25:23.935Z,0.0
2018-01-26T03:46:59.343Z,0.0
2018-01-26T03:57:13.033Z,0.0
2018-01-26T04:07:27.275Z,0.0
2018-01-26T04:17:41.489Z,0.0
2018-01-26T04:27:54.681Z,0.0
2018-01-26T04:38:09.472Z,0.0
2018-01-26T04:48:23.651Z,0.0
2018-01-26T04:59:08.408Z,0.0
2018-01-26T05:09:21.854Z,0.0
2018-01-26T05:19:35.292Z,0.0
2018-01-26T05:29:49.867Z,0.0
2018-01-26T05:40:04.052Z,0.0
2018-01-26T05:50:17.355Z,0.0
2018-01-26T06:00:31.220Z,0.0
2018-01-26T06:11:10.658Z,0.0
2018-01-26T06:21:24.591Z,0.0
2018-01-26T06:31:36.814Z,0.0
2018-01-26T06:41:50.996Z,0.0
2018-01-26T06:52:05.260Z,0.0
2018-01-26T07:02:19.316Z,8.0
2018-01-26T07:12:33.315Z,20.0
2018-01-26T07:22:47.275Z,40.0
2018-01-26T07:33:00.929Z,92.0
2018-01-26T07:43:46.217Z,172.0
2018-01-26T07:53:59.732Z,308.0
2018-01-26T08:04:14.019Z,468.0
2018-01-26T08:14:27.982Z,588.0
2018-01-26T08:24:42.200Z,600.0
2018-01-26T08:34:55.463Z,772.0
2018-01-26T08:45:07.307Z,956.0
2018-01-26T08:55:20.764Z,1060.0
2018-01-26T09:05:34.067Z,1020.0
2018-01-26T09:15:47.412Z,1100.0
2018-01-26T09:26:02.525Z,1092.0
2018-01-26T09:36:15.667Z,1212.0
2018-01-26T09:46:28.618Z,1304.0
2018-01-26T09:56:42.154Z,1224.0
2018-01-26T10:06:56.138Z,1412.0
2018-01-26T10:17:09.937Z,1360.0
2018-01-26T10:27:23.950Z,1500.0
2018-01-26T10:38:08.515Z,1452.0
2018-01-26T10:48:53.305Z,1208.0
2018-01-26T10:59:07.140Z,1996.0
2018-01-26T11:09:21.126Z,1660.0
2018-01-26T11:19:35.513Z,1308.0
2018-01-26T11:29:50.793Z,1632.0
2018-01-26T11:40:06.802Z,2508.0
2018-01-26T11:50:26.838Z,2320.0
2018-01-26T12:00:47.680Z,5776.0
2018-01-26T12:11:02.807Z,4500.0
2018-01-26T12:21:17.011Z,2816.0
2018-01-26T12:31:31.104Z,3244.0
2018-01-26T12:42:16.499Z,3020.0
2018-01-26T12:52:30.858Z,4064.0
2018-01-26T13:02:45.049Z,3900.0
2018-01-26T13:12:59.083Z,4080.0
2018-01-26T13:23:21.895Z,3428.0
2018-01-26T13:33:37.205Z,3180.0
2018-01-26T13:43:50.905Z,2300.0
2018-01-26T13:54:05.258Z,1980.0
2018-01-26T14:04:50.788Z,2792.0
2018-01-26T14:15:42.357Z,1396.0
2018-01-26T14:26:24.040Z,2312.0
2018-01-26T14:38:44.212Z,1676.0
2018-01-26T14:52:49.602Z,1632.0
2018-01-26T15:03:03.364Z,952.0
2018-01-26T15:13:17.223Z,836.0
2018-01-26T15:23:30.687Z,920.0
2018-01-26T15:33:44.667Z,504.0
2018-01-26T15:43:58.026Z,276.0
2018-01-26T15:54:12.213Z,124.0
2018-01-26T16:04:26.351Z,68.0
2018-01-26T16:14:39.580Z,24.0
2018-01-26T16:24:52.989Z,8.0
2018-01-26T16:35:07.120Z,0.0
2018-01-26T16:45:21.201Z,0.0
2018-01-26T16:55:34.546Z,0.0
2018-01-26T17:05:47.941Z,0.0
2018-01-26T17:26:15.911Z,0.0
2018-01-26T17:36:29.575Z,0.0
2018-01-26T17:46:43.897Z,0.0
2018-01-26T17:57:29.403Z,0.0
2018-01-26T18:08:14.335Z,0.0
2018-01-26T18:18:59.940Z,0.0
2018-01-26T18:29:44.648Z,0.0
2018-01-26T18:40:29.341Z,0.0
2018-01-26T18:50:42.965Z,0.0
2018-01-26T19:01:28.176Z,0.0
2018-01-26T19:24:24.039Z,0.0
2018-01-26T19:35:20.658Z,0.0
2018-01-26T19:48:10.418Z,0.0
2018-01-26T19:59:15.182Z,0.0
2018-01-26T20:21:00.577Z,0.0
2018-01-26T20:31:14.857Z,0.0
2018-01-26T20:41:31.011Z,0.0
2018-01-26T20:51:44.990Z,0.0
2018-01-26T21:01:58.619Z,0.0
2018-01-26T21:12:12.404Z,0.0
2018-01-26T21:22:25.484Z,0.0
2018-01-26T21:32:38.805Z,0.0
2018-01-26T21:43:23.463Z,0.0
2018-01-26T21:54:12.820Z,0.0
2018-01-26T22:04:26.687Z,0.0
2018-01-26T22:14:55.033Z,0.0
2018-01-26T22:25:08.969Z,0.0
2018-01-26T22:35:53.480Z,0.0
2018-01-26T22:46:07.156Z,0.0
2018-01-26T22:56:51.680Z,0.0
2018-01-26T23:07:36.438Z,0.0
2018-01-26T23:17:51.316Z,0.0
2018-01-26T23:28:05.248Z,0.0
2018-01-26T23:38:19.591Z,0.0
2018-01-26T23:48:33.624Z,0.0
2018-01-26T23:58:47.509Z,0.0
